Time;durP1;ratioP1;P1;durP2;ratioP2;P2;SDS_P1;SDS_P2;PMS_P1;PMS_P2;Temp;Humidity;BMP_temperature;BMP_pressure;BME280_temperature;BME280_humidity;BME280_pressure;Samples;Min_cycle;Max_cycle;Signal;HPM_P1;HPM_P2
2023/10/19 07:53:09;;;;;;;10.37;2.10;;;;;;;28.17;24.24;98922.69;5100021;22;1405852;-75
2023/10/19 07:55:34;;;;;;;8.00;2.13;;;;;;;27.54;25.11;98913.91;5023228;28;20041;-73
2023/10/19 07:58:00;;;;;;;10.25;2.38;;;;;;;27.55;25.68;98924.41;5048441;28;20285;-74
2023/10/19 08:00:26;;;;;;;13.50;2.70;;;;;;;27.48;26.19;98917.50;5069146;28;20037;-72
2023/10/19 08:02:53;;;;;;;4.70;2.28;;;;;;;27.79;26.25;98917.31;5035639;28;20028;-72
2023/10/19 08:05:19;;;;;;;8.32;2.40;;;;;;;28.24;25.77;98921.53;5037232;28;20024;-73
2023/10/19 08:07:46;;;;;;;8.15;2.30;;;;;;;28.33;24.50;98920.16;5053027;28;20037;-73
2023/10/19 08:10:12;;;;;;;8.32;2.90;;;;;;;27.47;25.68;98915.84;5053611;28;20032;-75
2023/10/19 08:12:43;;;;;;;11.80;3.17;;;;;;;27.66;26.36;98922.03;5022269;28;20498;-76
2023/10/19 08:15:15;;;;;;;14.20;4.13;;;;;;;27.60;27.07;98924.56;5055306;28;20065;-76
2023/10/19 08:17:42;;;;;;;8.68;3.40;;;;;;;27.52;26.74;98922.19;5054910;28;20039;-78
2023/10/19 08:20:10;;;;;;;10.82;3.60;;;;;;;27.86;27.28;98917.25;5032673;28;20032;-70
2023/10/19 08:22:39;;;;;;;9.95;3.25;;;;;;;27.16;26.95;98913.03;5049120;28;20056;-74
2023/10/19 08:25:11;;;;;;;7.88;2.92;;;;;;;26.49;27.88;98926.13;5028566;28;20029;-71
2023/10/19 08:27:41;;;;;;;7.22;3.10;;;;;;;26.09;29.61;98918.28;5054912;28;20020;-71
2023/10/19 08:30:08;;;;;;;5.90;3.20;;;;;;;25.83;29.54;98917.34;5054257;28;20407;-72
2023/10/19 08:32:35;;;;;;;8.23;2.55;;;;;;;25.62;30.01;98913.94;5034788;28;20033;-77
2023/10/19 08:35:02;;;;;;;9.40;2.80;;;;;;;25.46;31.11;98917.06;5049809;28;20136;-75
2023/10/19 08:37:27;;;;;;;8.70;3.53;;;;;;;25.06;30.57;98919.75;5053244;28;20150;-71
2023/10/19 08:39:53;;;;;;;12.48;2.95;;;;;;;24.74;32.09;98922.22;5071793;28;20032;-70
2023/10/19 08:42:20;;;;;;;10.88;3.65;;;;;;;24.69;32.35;98914.03;5020564;28;20490;-75
2023/10/19 08:44:45;;;;;;;10.68;3.05;;;;;;;24.46;32.80;98909.84;5057672;28;20029;-74
2023/10/19 08:47:12;;;;;;;9.73;2.75;;;;;;;24.56;33.00;98920.16;5040417;28;20089;-72
2023/10/19 08:49:37;;;;;;;11.75;3.92;;;;;;;24.59;31.66;98906.44;5054680;28;20055;-72
2023/10/19 08:52:04;;;;;;;10.07;5.80;;;;;;;24.53;31.34;98905.34;5039745;28;20033;-73
2023/10/19 08:54:29;;;;;;;8.32;3.90;;;;;;;24.20;31.98;98905.28;5036744;28;20110;-76
2023/10/19 08:56:59;;;;;;;10.48;4.85;;;;;;;24.34;31.88;98909.63;5038213;28;20025;-79
2023/10/19 08:59:25;;;;;;;9.93;4.30;;;;;;;24.24;31.84;98906.50;5034425;28;20045;-75
2023/10/19 09:01:50;;;;;;;9.82;4.22;;;;;;;24.20;32.28;98905.28;5036271;28;20124;-79
2023/10/19 09:04:18;;;;;;;10.07;4.60;;;;;;;23.99;32.76;98896.41;5019472;28;20048;-74
2023/10/19 09:06:45;;;;;;;11.13;5.18;;;;;;;23.12;33.88;98897.78;5053610;28;20055;-77
2023/10/19 09:09:16;;;;;;;17.35;5.63;;;;;;;23.53;33.27;98897.00;5052929;28;20033;-75
2023/10/19 09:11:43;;;;;;;8.98;4.95;;;;;;;23.88;33.01;98890.81;5036916;28;20021;-76
2023/10/19 09:14:08;;;;;;;9.77;4.15;;;;;;;24.67;31.66;98890.22;5019174;28;20037;-74
2023/10/19 09:16:36;;;;;;;11.85;4.55;;;;;;;25.03;30.73;98886.28;5053553;28;20462;-78
2023/10/19 09:19:02;;;;;;;10.52;4.25;;;;;;;25.36;30.54;98892.63;5035404;28;20132;-76
2023/10/19 09:21:28;;;;;;;9.45;4.35;;;;;;;25.67;30.38;98885.75;5037804;28;20040;-77
2023/10/19 09:23:57;;;;;;;8.55;3.80;;;;;;;25.92;30.90;98881.31;5036278;28;20040;-73
2023/10/19 09:26:25;;;;;;;10.57;4.20;;;;;;;26.10;29.38;98877.16;5059006;28;20593;-75
2023/10/19 09:28:51;;;;;;;7.15;4.25;;;;;;;25.97;29.61;98870.84;5054778;28;20041;-80
2023/10/19 09:31:18;;;;;;;9.63;4.65;;;;;;;25.75;29.51;98875.63;5037262;28;20064;-80
2023/10/19 09:33:44;;;;;;;13.23;4.60;;;;;;;25.92;29.19;98869.78;5037070;28;20025;-79
2023/10/19 09:36:13;;;;;;;10.27;4.65;;;;;;;26.30;28.77;98874.38;5053543;28;20032;-78
2023/10/19 09:38:49;;;;;;;10.07;4.13;;;;;;;26.26;29.49;98862.44;5037000;28;20037;-78
2023/10/19 09:41:15;;;;;;;7.93;4.90;;;;;;;25.78;29.48;98875.22;5036654;28;20033;-80
2023/10/19 09:43:45;;;;;;;11.18;4.38;;;;;;;25.93;29.53;98858.06;5035221;28;20125;-79
2023/10/19 09:46:12;;;;;;;7.95;4.55;;;;;;;26.38;28.79;98857.19;5019439;28;20037;-78
2023/10/19 09:48:41;;;;;;;7.90;4.80;;;;;;;26.47;28.53;98853.22;5037855;28;20088;-80
2023/10/19 09:51:08;;;;;;;10.75;4.63;;;;;;;26.48;29.54;98858.34;5018739;28;20116;-77
2023/10/19 09:53:34;;;;;;;5.78;3.78;;;;;;;26.23;29.60;98862.88;5037721;28;20045;-75
2023/10/19 09:55:59;;;;;;;7.35;4.28;;;;;;;26.44;29.95;98853.66;5020951;28;20039;-73
2023/10/19 09:58:31;;;;;;;7.57;5.20;;;;;;;26.43;29.20;98850.16;5038189;28;20032;-74
2023/10/19 10:00:59;;;;;;;10.13;4.63;;;;;;;26.67;29.31;98842.41;5038874;28;20089;-77
2023/10/19 10:03:47;;;;;;;9.63;4.82;;;;;;;26.97;28.59;98839.03;5022965;28;20030;-77
2023/10/19 10:06:14;;;;;;;16.67;6.70;;;;;;;26.88;28.64;98839.34;5055155;28;20470;-73
2023/10/19 10:08:46;;;;;;;9.65;5.30;;;;;;;26.95;28.36;98822.38;5038926;28;20036;-75
2023/10/19 10:11:21;;;;;;;11.90;6.07;;;;;;;26.64;29.11;98824.06;5021855;28;20481;-74
2023/10/19 10:13:51;;;;;;;12.13;5.60;;;;;;;27.00;28.55;98817.16;5055847;28;20031;-80
2023/10/19 10:16:21;;;;;;;11.85;6.10;;;;;;;26.70;29.16;98801.81;5055522;28;20134;-76
2023/10/19 10:18:48;;;;;;;11.85;5.80;;;;;;;26.84;29.69;98797.94;5021863;28;20514;-79
2023/10/19 10:21:15;;;;;;;17.05;5.75;;;;;;;27.19;29.37;98797.38;5054945;28;20028;-74
2023/10/19 10:23:44;;;;;;;11.18;5.85;;;;;;;26.37;29.89;98786.81;5038210;28;20082;-73
2023/10/19 10:26:11;;;;;;;12.27;6.45;;;;;;;26.15;30.10;98789.84;5039116;28;20048;-74
2023/10/19 10:28:36;;;;;;;10.80;5.80;;;;;;;26.05;29.44;98784.19;5021826;28;20036;-77
2023/10/19 10:31:15;;;;;;;12.35;6.15;;;;;;;25.85;30.19;98781.59;5021930;28;20460;-77
2023/10/19 10:33:51;;;;;;;10.25;5.85;;;;;;;25.57;30.07;98784.63;5054938;28;20395;-73
2023/10/19 10:36:18;;;;;;;8.45;5.65;;;;;;;25.60;30.34;98789.53;5037933;28;20024;-73
2023/10/19 10:38:45;;;;;;;9.48;5.50;;;;;;;25.61;30.63;98777.81;5054624;28;20169;-74
2023/10/19 10:41:10;;;;;;;10.43;6.20;;;;;;;25.83;30.29;98771.13;5021311;28;20033;-74
2023/10/19 10:43:53;;;;;;;10.23;6.40;;;;;;;25.97;29.54;98763.03;5020823;28;20052;-72
2023/10/19 10:46:23;;;;;;;12.73;5.97;;;;;;;25.84;29.90;98758.59;5054771;28;20028;-73
2023/10/19 10:48:48;;;;;;;10.95;5.55;;;;;;;25.61;30.14;98759.13;5054071;28;20645;-77
2023/10/19 10:51:24;;;;;;;11.02;5.60;;;;;;;25.32;30.41;98753.31;5020828;28;20131;-74
2023/10/19 10:53:51;;;;;;;8.85;5.32;;;;;;;25.20;30.78;98754.97;5036625;28;20079;-72
2023/10/19 10:56:17;;;;;;;12.93;5.25;;;;;;;25.11;31.35;98738.34;5054178;28;20032;-73
2023/10/19 10:58:44;;;;;;;14.90;5.78;;;;;;;25.39;30.36;98747.94;5020839;28;20028;-72
2023/10/19 11:01:10;;;;;;;8.38;5.80;;;;;;;25.27;30.84;98750.44;5037357;28;20024;-72
2023/10/19 11:03:39;;;;;;;12.65;5.30;;;;;;;25.26;30.54;98746.09;5037275;28;20375;-72
2023/10/19 11:06:08;;;;;;;9.52;5.53;;;;;;;25.28;30.60;98750.22;5054235;28;20036;-74
2023/10/19 11:08:34;;;;;;;9.65;5.28;;;;;;;25.05;30.63;98745.38;5037231;28;20102;-72
2023/10/19 11:11:07;;;;;;;10.07;5.93;;;;;;;25.05;31.08;98742.69;5037089;28;20032;-74
2023/10/19 11:13:35;;;;;;;12.35;6.38;;;;;;;24.85;31.16;98744.59;5021086;28;20071;-72
2023/10/19 11:16:03;;;;;;;13.45;6.13;;;;;;;24.64;31.54;98737.69;5037786;28;20032;-72
2023/10/19 11:18:29;;;;;;;;;;;;;;;24.74;31.39;98744.19;5037561;28;20032;-70
2023/10/19 11:20:55;;;;;;;9.52;6.50;;;;;;;24.69;31.29;98733.34;5071512;28;19919;-75
2023/10/19 11:23:42;;;;;;;13.35;6.60;;;;;;;24.46;31.32;98727.59;5037261;28;20032;-72
2023/10/19 11:26:11;;;;;;;10.15;5.97;;;;;;;24.41;31.97;98725.56;5022963;28;20442;-72
2023/10/19 11:28:58;;;;;;;10.52;6.65;;;;;;;24.49;31.23;98713.84;5036789;28;20117;-72
2023/10/19 11:31:23;;;;;;;14.65;6.47;;;;;;;23.91;31.77;98712.66;5042404;28;20435;-75
2023/10/19 11:33:53;;;;;;;14.65;6.28;;;;;;;23.64;32.33;98704.59;5036806;28;20020;-72
2023/10/19 11:36:20;;;;;;;13.50;5.75;;;;;;;23.33;33.18;98706.97;5020758;28;20403;-73
2023/10/19 11:38:46;;;;;;;11.10;4.60;;;;;;;23.28;34.83;98697.75;5020572;28;20035;-72
2023/10/19 11:41:13;;;;;;;12.77;6.03;;;;;;;23.37;33.54;98697.56;5036477;28;20043;-73
2023/10/19 11:43:44;;;;;;;12.45;6.70;;;;;;;23.05;33.74;98703.34;5036035;28;20033;-75
2023/10/19 11:46:11;;;;;;;10.85;6.90;;;;;;;22.74;34.57;98703.84;5020401;28;20024;-75
2023/10/19 11:48:36;;;;;;;12.63;6.43;;;;;;;22.51;34.88;98691.63;5037297;28;20047;-75
2023/10/19 11:51:06;;;;;;;17.48;5.97;;;;;;;22.52;34.90;98697.78;5036722;28;20398;-73
2023/10/19 11:53:35;;;;;;;12.18;6.22;;;;;;;22.52;35.14;98689.78;5037112;28;20045;-75
2023/10/19 11:56:12;;;;;;;9.70;5.57;;;;;;;22.43;35.01;98675.81;5037152;28;20097;-75
2023/10/19 11:58:39;;;;;;;10.70;5.90;;;;;;;22.36;35.62;98674.94;5038744;28;20040;-75
2023/10/19 12:01:08;;;;;;;10.90;5.80;;;;;;;22.16;35.83;98678.25;5036622;28;20028;-76
2023/10/19 12:03:36;;;;;;;12.68;6.68;;;;;;;22.05;35.69;98676.94;5037484;28;20064;-78
2023/10/19 12:06:06;;;;;;;12.73;6.15;;;;;;;21.78;36.03;98680.41;5053531;28;20062;-78
2023/10/19 12:08:34;;;;;;;9.07;5.78;;;;;;;21.75;36.75;98673.63;5020827;28;20116;-75
2023/10/19 12:11:01;;;;;;;10.30;5.18;;;;;;;21.69;36.73;98666.44;5037374;28;20032;-76
2023/10/19 12:13:28;;;;;;;10.95;5.82;;;;;;;21.55;36.35;98668.13;5020420;28;20043;-78
2023/10/19 12:15:55;;;;;;;7.82;5.35;;;;;;;21.25;36.94;98662.06;5020473;28;20099;-78
2023/10/19 12:18:21;;;;;;;8.73;5.10;;;;;;;21.36;36.71;98671.38;5022652;28;20033;-76
2023/10/19 12:20:47;;;;;;;7.93;5.20;;;;;;;21.32;36.75;98671.75;5023382;28;20093;-76
2023/10/19 12:23:13;;;;;;;9.52;4.07;;;;;;;21.37;38.74;98657.91;5024081;28;20123;-77
2023/10/19 12:25:38;;;;;;;9.48;4.57;;;;;;;21.60;38.09;98665.75;5040723;28;20058;-76
2023/10/19 12:28:04;;;;;;;6.82;3.60;;;;;;;21.56;38.91;98653.03;5023916;28;20387;-75
2023/10/19 12:30:36;;;;;;;7.50;3.90;;;;;;;21.56;39.00;98653.84;5040371;28;20021;-75
2023/10/19 12:33:07;;;;;;;6.93;4.65;;;;;;;21.57;37.15;98654.66;5025586;28;20450;-73
2023/10/19 12:35:44;;;;;;;8.35;5.03;;;;;;;21.15;37.53;98649.13;5026059;28;20551;-73
2023/10/19 12:38:15;;;;;;;11.45;5.30;;;;;;;21.00;38.10;98648.31;5026037;28;20200;-75
2023/10/19 12:40:42;;;;;;;14.57;4.95;;;;;;;20.99;37.99;98644.03;5057432;28;20035;-74
2023/10/19 12:43:10;;;;;;;14.65;5.68;;;;;;;20.90;37.62;98635.34;5023863;28;20079;-73
2023/10/19 12:45:36;;;;;;;8.00;5.22;;;;;;;20.52;38.18;98635.47;5056737;28;20048;-75
2023/10/19 12:48:04;;;;;;;9.30;4.38;;;;;;;20.38;38.58;98648.53;5040537;28;20544;-72
2023/10/19 12:50:30;;;;;;;5.38;4.03;;;;;;;20.39;38.60;98631.63;5040410;28;20035;-74
2023/10/19 12:52:56;;;;;;;6.40;4.22;;;;;;;20.34;38.90;98641.13;5039754;28;20403;-76
2023/10/19 12:55:21;;;;;;;5.80;4.32;;;;;;;20.31;38.85;98642.31;5056401;28;20048;-74
2023/10/19 12:57:47;;;;;;;7.80;4.15;;;;;;;20.26;38.84;98639.38;5039718;28;20394;-76
2023/10/19 13:00:35;;;;;;;5.50;4.00;;;;;;;20.34;39.04;98630.53;5039582;28;20117;-74
2023/10/19 13:03:05;;;;;;;5.80;4.03;;;;;;;20.29;38.58;98630.22;5029368;28;20128;-76
2023/10/19 13:05:34;;;;;;;8.07;3.42;;;;;;;20.31;38.50;98618.47;5039992;28;20044;-74
2023/10/19 13:08:00;;;;;;;6.45;3.97;;;;;;;20.32;38.63;98624.56;5039793;28;20449;-75
2023/10/19 13:10:32;;;;;;;4.25;3.50;;;;;;;20.25;38.39;98621.84;5023329;28;20037;-73
2023/10/19 13:13:03;;;;;;;5.22;3.50;;;;;;;20.36;38.26;98613.41;5023514;28;20128;-77
2023/10/19 13:15:34;;;;;;;7.35;3.85;;;;;;;20.41;38.43;98612.88;5040335;28;20089;-74
2023/10/19 13:18:00;;;;;;;5.10;3.60;;;;;;;20.51;38.52;98607.28;5024274;28;20706;-73
2023/10/19 13:20:26;;;;;;;5.50;3.35;;;;;;;20.59;38.55;98604.56;5022945;28;20032;-74
2023/10/19 13:22:52;;;;;;;7.55;4.28;;;;;;;20.59;38.21;98605.38;5022696;28;20505;-73
2023/10/19 13:25:18;;;;;;;6.38;4.63;;;;;;;20.45;38.62;98608.88;5039632;28;20036;-73
2023/10/19 13:27:45;;;;;;;6.18;4.20;;;;;;;20.29;38.57;98601.06;5022562;28;20048;-75
2023/10/19 13:30:11;;;;;;;5.47;4.03;;;;;;;20.27;39.09;98598.63;5038486;28;20040;-72
2023/10/19 13:32:37;;;;;;;5.82;4.18;;;;;;;20.30;38.95;98595.59;5039114;28;20029;-73
2023/10/19 13:35:04;;;;;;;6.57;4.70;;;;;;;20.19;39.10;98599.56;5022074;28;20036;-74
2023/10/19 13:37:29;;;;;;;4.68;3.78;;;;;;;20.26;39.10;98591.69;5055601;28;20025;-73
2023/10/19 13:39:55;;;;;;;8.20;4.20;;;;;;;20.20;38.70;98587.94;5022613;28;20093;-75
2023/10/19 13:42:21;;;;;;;7.43;3.92;;;;;;;20.20;39.08;98579.97;5039002;28;20040;-75
2023/10/19 13:44:49;;;;;;;7.35;4.43;;;;;;;20.16;39.23;98569.91;5022402;28;20025;-73
2023/10/19 13:47:15;;;;;;;7.65;3.90;;;;;;;20.18;39.13;98567.94;5022365;28;20032;-73
2023/10/19 13:49:41;;;;;;;7.53;4.32;;;;;;;20.20;39.17;98566.72;5038378;28;20044;-74
2023/10/19 13:52:08;;;;;;;10.35;4.50;;;;;;;20.18;39.50;98581.19;5022223;28;20036;-74
2023/10/19 13:54:37;;;;;;;6.40;3.95;;;;;;;20.10;38.96;98581.25;5039361;28;20048;-74
2023/10/19 13:57:03;;;;;;;;;;;;;;;20.14;38.84;98575.41;5056169;28;20029;-75
2023/10/19 13:59:29;;;;;;;5.18;3.60;;;;;;;20.08;38.58;98564.72;5055644;28;19966;-75
2023/10/19 14:01:54;;;;;;;6.22;4.07;;;;;;;20.13;38.92;98562.34;5038776;28;20033;-74
2023/10/19 14:04:20;;;;;;;4.88;3.58;;;;;;;20.21;38.59;98559.63;5022234;28;20043;-73
2023/10/19 14:06:49;;;;;;;6.18;3.50;;;;;;;20.08;38.67;98557.56;5038552;28;20461;-76
2023/10/19 14:09:14;;;;;;;5.32;3.67;;;;;;;20.10;38.51;98562.69;5039450;28;20024;-73
2023/10/19 14:11:40;;;;;;;6.78;3.22;;;;;;;20.12;38.64;98558.88;5038593;28;20475;-73
2023/10/19 14:14:06;;;;;;;6.88;3.67;;;;;;;20.07;38.51;98555.97;5038159;28;20413;-73
2023/10/19 14:16:32;;;;;;;5.10;3.80;;;;;;;19.99;38.57;98548.91;5038582;28;20020;-74
2023/10/19 14:18:57;;;;;;;6.20;3.75;;;;;;;20.06;38.50;98541.06;5055102;28;20036;-73
2023/10/19 14:21:26;;;;;;;6.93;3.58;;;;;;;20.10;38.53;98530.91;5038045;28;20032;-74
2023/10/19 14:23:53;;;;;;;7.47;3.70;;;;;;;20.18;38.60;98539.59;5055379;28;20119;-72
2023/10/19 14:26:18;;;;;;;5.43;3.80;;;;;;;19.90;38.31;98526.16;5038197;28;20477;-73
2023/10/19 14:28:44;;;;;;;6.93;3.47;;;;;;;19.85;38.46;98533.84;5054437;28;20037;-75
2023/10/19 14:31:11;;;;;;;6.07;3.20;;;;;;;19.83;38.66;98539.31;5021356;28;20021;-73
2023/10/19 14:33:37;;;;;;;6.10;3.60;;;;;;;19.77;38.56;98531.28;5038050;28;20024;-75
2023/10/19 14:36:06;;;;;;;4.32;3.40;;;;;;;19.75;38.67;98543.81;5038187;28;20024;-74
2023/10/19 14:38:31;;;;;;;10.48;3.15;;;;;;;19.76;39.18;98538.38;5054413;28;20047;-72
2023/10/19 14:40:57;;;;;;;6.13;3.67;;;;;;;19.62;38.79;98542.63;5037612;28;20471;-74
2023/10/19 14:43:25;;;;;;;8.73;3.97;;;;;;;19.62;39.08;98545.25;5021612;28;20109;-76
2023/10/19 14:45:51;;;;;;;;;;;;;;;19.66;39.11;98541.25;5022339;28;20119;-74
2023/10/19 14:48:19;;;;;;;9.07;5.72;;;;;;;19.65;39.56;98534.31;5037081;28;19948;-74
2023/10/19 14:50:44;;;;;;;8.73;4.90;;;;;;;19.67;39.48;98529.69;5054431;28;20495;-75
2023/10/19 14:53:10;;;;;;;9.63;4.03;;;;;;;19.61;39.71;98527.75;5037251;28;20041;-74
2023/10/19 14:55:36;;;;;;;6.53;3.55;;;;;;;19.57;39.40;98525.66;5037618;28;20028;-73
2023/10/19 14:58:02;;;;;;;8.88;3.60;;;;;;;19.53;39.52;98519.91;5037611;28;20130;-74
2023/10/19 15:00:33;;;;;;;7.03;3.17;;;;;;;19.52;40.11;98527.00;5037566;28;20035;-74
2023/10/19 15:03:00;;;;;;;5.18;3.55;;;;;;;19.46;40.26;98516.31;5022265;28;20039;-74
2023/10/19 15:05:29;;;;;;;6.90;3.40;;;;;;;19.45;41.06;98525.25;5037214;28;20475;-74
2023/10/19 15:07:55;;;;;;;8.10;4.00;;;;;;;19.39;42.61;98516.22;5053877;28;20495;-73
2023/10/19 15:10:25;;;;;;;5.53;3.80;;;;;;;19.34;43.20;98526.50;5037556;28;20029;-74
2023/10/19 15:12:50;;;;;;;6.30;3.88;;;;;;;19.26;43.26;98531.84;5053994;28;20032;-73
2023/10/19 15:15:16;;;;;;;7.53;3.75;;;;;;;19.17;42.99;98523.16;5036972;28;20479;-72
2023/10/19 15:17:43;;;;;;;7.88;3.70;;;;;;;19.06;43.11;98518.31;5037429;28;20040;-73
2023/10/19 15:20:10;;;;;;;9.55;3.90;;;;;;;19.00;43.60;98511.06;5020805;28;20024;-73
2023/10/19 15:22:36;;;;;;;9.38;3.80;;;;;;;18.89;43.55;98507.81;5037047;28;20470;-72
2023/10/19 15:25:01;;;;;;;9.98;3.70;;;;;;;18.83;43.64;98524.34;5037117;28;20050;-74
2023/10/19 15:27:28;;;;;;;8.60;3.70;;;;;;;18.67;43.31;98508.59;5036441;28;20048;-75
2023/10/19 15:29:55;;;;;;;7.25;3.90;;;;;;;18.62;43.69;98512.59;5037054;28;20032;-74
2023/10/19 15:32:21;;;;;;;6.63;3.93;;;;;;;18.53;44.01;98516.28;5020307;28;20127;-72
2023/10/19 15:34:47;;;;;;;10.80;3.67;;;;;;;18.42;44.08;98511.38;5053367;28;20111;-75
2023/10/19 15:37:13;;;;;;;6.78;4.28;;;;;;;18.33;44.42;98515.03;5037066;28;20097;-74
2023/10/19 15:39:38;;;;;;;7.30;3.55;;;;;;;18.22;44.32;98506.53;5053166;28;20472;-73
2023/10/19 15:42:04;;;;;;;5.65;3.95;;;;;;;18.10;44.71;98502.59;5020108;28;20047;-75
2023/10/19 15:44:30;;;;;;;5.70;3.47;;;;;;;18.02;44.89;98498.16;5020393;28;20028;-75
2023/10/19 15:46:55;;;;;;;5.82;3.63;;;;;;;17.94;44.76;98500.84;5020472;28;20035;-74
2023/10/19 15:49:22;;;;;;;8.02;4.90;;;;;;;17.84;45.57;98510.75;5020157;28;20032;-73
2023/10/19 15:51:47;;;;;;;9.85;6.82;;;;;;;17.80;45.90;98507.59;5052649;28;20413;-75
2023/10/19 15:54:13;;;;;;;9.40;5.38;;;;;;;17.70;45.95;98505.16;5070358;28;20044;-76
2023/10/19 15:56:39;;;;;;;10.07;5.88;;;;;;;17.68;45.85;98512.44;5036391;28;20450;-73
2023/10/19 15:59:05;;;;;;;11.57;5.00;;;;;;;17.58;46.11;98506.50;5020008;28;20037;-71
2023/10/19 16:01:30;;;;;;;6.47;5.10;;;;;;;17.46;46.02;98500.75;5019166;28;20033;-72
2023/10/19 16:03:59;;;;;;;12.70;8.73;;;;;;;17.40;45.97;98496.16;5036169;28;20106;-72
2023/10/19 16:06:24;;;;;;;8.43;5.10;;;;;;;17.35;45.57;98507.19;5036505;28;20031;-73
2023/10/19 16:08:51;;;;;;;7.90;3.95;;;;;;;17.31;45.55;98505.88;5019879;28;20029;-76
2023/10/19 16:11:17;;;;;;;4.70;3.70;;;;;;;17.24;46.35;98506.72;5020367;28;20465;-73
2023/10/19 16:13:44;;;;;;;5.40;3.30;;;;;;;17.16;47.50;98505.72;5019911;28;20064;-74
2023/10/19 16:16:10;;;;;;;16.00;3.78;;;;;;;17.40;52.62;98496.16;5020159;28;20044;-71
2023/10/19 16:18:36;;;;;;;7.40;3.45;;;;;;;17.56;49.55;98505.84;5070862;28;20058;-72
2023/10/19 16:21:05;;;;;;;6.63;3.60;;;;;;;17.65;51.29;98504.03;5053317;28;20491;-73
2023/10/19 16:23:31;;;;;;;11.10;4.45;;;;;;;17.97;51.86;98507.63;5020636;28;20483;-78
2023/10/19 16:26:00;;;;;;;8.05;3.70;;;;;;;18.23;50.16;98512.63;5019589;28;20043;-74
2023/10/19 16:28:27;;;;;;;9.27;4.53;;;;;;;18.25;50.33;98514.09;5071297;28;20029;-73
2023/10/19 16:30:52;;;;;;;15.10;5.03;;;;;;;18.30;47.94;98518.06;5052792;28;20024;-76
2023/10/19 16:33:18;;;;;;;10.30;6.63;;;;;;;18.20;47.03;98516.44;5035725;28;20503;-77
2023/10/19 16:35:43;;;;;;;13.00;8.23;;;;;;;18.14;46.69;98513.63;5052698;28;20399;-79
2023/10/19 16:38:12;;;;;;;11.77;10.00;;;;;;;18.02;46.20;98508.72;5035953;28;20033;-74
2023/10/19 16:40:38;;;;;;;16.73;10.30;;;;;;;17.97;45.70;98500.50;5036875;28;20047;-73
2023/10/19 16:43:08;;;;;;;14.80;12.25;;;;;;;17.96;45.57;98500.66;5052479;28;20029;-75
2023/10/19 16:45:33;;;;;;;17.30;13.38;;;;;;;17.93;45.50;98503.66;5035438;28;20056;-76
2023/10/19 16:47:59;;;;;;;19.10;14.07;;;;;;;17.89;45.39;98504.00;5036027;28;20557;-76
2023/10/19 16:50:24;;;;;;;14.35;10.18;;;;;;;17.81;46.85;98496.06;5035225;28;20036;-76
2023/10/19 16:52:50;;;;;;;16.92;13.35;;;;;;;17.80;46.22;98496.25;5052352;28;20036;-73
2023/10/19 16:55:15;;;;;;;18.63;13.60;;;;;;;17.78;46.13;98509.59;5052217;28;20052;-73
2023/10/19 16:57:41;;;;;;;16.77;11.85;;;;;;;17.69;46.04;98511.44;5052291;28;20064;-72
2023/10/19 17:00:07;;;;;;;14.18;10.43;;;;;;;17.61;45.92;98506.16;5052353;28;20411;-72
2023/10/19 17:02:35;;;;;;;10.38;8.35;;;;;;;17.59;46.03;98512.63;5035858;28;20062;-72
2023/10/19 17:05:00;;;;;;;9.75;7.22;;;;;;;17.52;45.96;98513.28;5055978;28;20059;-70
2023/10/19 17:07:27;;;;;;;8.27;5.85;;;;;;;17.50;46.77;98515.25;5056028;28;20032;-73
2023/10/19 17:09:52;;;;;;;9.68;6.47;;;;;;;17.48;46.49;98522.53;5055718;28;20030;-74
2023/10/19 17:12:18;;;;;;;9.07;5.88;;;;;;;17.44;46.29;98517.75;5073648;28;20452;-74
2023/10/19 17:14:43;;;;;;;9.05;5.18;;;;;;;17.37;46.26;98520.22;5073735;28;20406;-76
2023/10/19 17:17:09;;;;;;;10.05;5.47;;;;;;;17.34;46.40;98512.63;5055946;28;20033;-77
2023/10/19 17:19:34;;;;;;;8.85;6.93;;;;;;;17.30;46.29;98512.16;5055868;28;20039;-77
2023/10/19 17:22:00;;;;;;;10.18;7.30;;;;;;;17.18;46.23;98503.72;5055367;28;20102;-76
2023/10/19 17:24:27;;;;;;;7.55;5.03;;;;;;;17.22;50.65;98522.72;5040004;28;20062;-74
2023/10/19 17:26:52;;;;;;;7.03;4.38;;;;;;;17.34;49.18;98521.38;5073311;28;20036;-75
2023/10/19 17:29:18;;;;;;;8.27;4.35;;;;;;;17.29;48.54;98525.50;5039600;28;20035;-74
2023/10/19 17:31:44;;;;;;;10.93;4.30;;;;;;;17.26;48.28;98531.13;5055059;28;20036;-72
2023/10/19 17:34:09;;;;;;;6.35;3.92;;;;;;;17.22;48.11;98527.16;5073309;28;20030;-73
2023/10/19 17:36:35;;;;;;;7.45;4.15;;;;;;;17.15;47.49;98532.25;5022281;28;20033;-73
2023/10/19 17:39:00;;;;;;;5.75;3.45;;;;;;;17.12;47.30;98527.31;5073210;28;20451;-74
2023/10/19 17:41:26;;;;;;;4.25;3.50;;;;;;;17.06;47.22;98534.06;5038612;28;20511;-73
2023/10/19 17:43:52;;;;;;;6.88;3.42;;;;;;;17.00;47.88;98538.19;5055277;28;20025;-74
2023/10/19 17:46:17;;;;;;;22.05;3.80;;;;;;;17.24;55.30;98533.09;5038748;28;20119;-74
2023/10/19 17:48:45;;;;;;;11.93;3.80;;;;;;;17.34;51.96;98537.19;5055299;28;20040;-74
2023/10/19 17:51:12;;;;;;;12.88;3.28;;;;;;;17.28;50.22;98532.56;5022237;28;20518;-73
2023/10/19 17:53:39;;;;;;;8.65;2.97;;;;;;;17.29;50.56;98534.25;5053839;28;20585;-74
2023/10/19 17:56:06;;;;;;;8.52;3.17;;;;;;;17.22;49.80;98527.16;5038695;28;20477;-77
2023/10/19 17:58:32;;;;;;;6.50;3.33;;;;;;;17.12;49.04;98519.41;5037978;28;20049;-74
2023/10/19 18:00:58;;;;;;;6.07;3.50;;;;;;;17.02;48.48;98513.47;5021503;28;20041;-74
2023/10/19 18:03:24;;;;;;;7.50;3.60;;;;;;;16.99;48.93;98512.78;5022184;28;20821;-80
2023/10/19 18:05:50;;;;;;;21.55;3.35;;;;;;;17.23;55.49;98515.63;5038251;28;20028;-74
2023/10/19 18:08:15;;;;;;;11.20;3.10;;;;;;;17.21;51.34;98502.59;5037656;28;20055;-75
2023/10/19 18:10:41;;;;;;;6.45;3.20;;;;;;;17.17;50.23;98515.28;5054737;28;20032;-74
2023/10/19 18:13:07;;;;;;;12.80;3.17;;;;;;;17.11;52.73;98523.00;5021265;28;20036;-73
2023/10/19 18:15:36;;;;;;;7.53;2.70;;;;;;;17.17;51.47;98523.19;5020405;28;20028;-73
2023/10/19 18:18:03;;;;;;;5.15;2.88;;;;;;;17.18;50.37;98513.47;5072650;28;20063;-73
2023/10/19 18:20:31;;;;;;;6.80;3.05;;;;;;;17.15;49.69;98517.25;5021557;28;20025;-73
2023/10/19 18:22:57;;;;;;;12.88;8.60;;;;;;;17.13;49.97;98518.41;5037878;28;20025;-73
2023/10/19 18:25:23;;;;;;;14.20;11.85;;;;;;;17.17;50.54;98517.09;5037682;28;20045;-72
2023/10/19 18:27:52;;;;;;;10.02;9.00;;;;;;;17.25;50.86;98521.53;5037857;28;20418;-75
2023/10/19 18:30:19;;;;;;;;;;;;;;;17.37;50.39;98517.59;5038125;28;20100;-75
2023/10/19 18:32:45;;;;;;;10.02;6.82;;;;;;;17.43;49.58;98522.19;5037873;28;19908;-75
2023/10/19 18:35:11;;;;;;;6.43;5.10;;;;;;;17.54;49.60;98518.41;5054290;28;20490;-73
2023/10/19 18:37:37;;;;;;;6.28;4.60;;;;;;;17.70;48.65;98520.19;5071990;28;20028;-75
2023/10/19 18:40:03;;;;;;;6.85;4.03;;;;;;;17.86;49.29;98512.22;5054456;28;20111;-74
2023/10/19 18:42:30;;;;;;;10.55;3.20;;;;;;;18.26;51.93;98515.75;5054247;28;20444;-72
2023/10/19 18:44:57;;;;;;;6.38;3.28;;;;;;;18.45;51.04;98511.03;5072021;28;20142;-73
2023/10/19 18:47:24;;;;;;;5.15;3.00;;;;;;;18.62;49.89;98509.94;5037864;28;20040;-75
2023/10/19 18:49:54;;;;;;;10.45;3.38;;;;;;;18.71;50.07;98520.50;5071824;28;20035;-72
2023/10/19 18:52:19;;;;;;;5.63;3.13;;;;;;;18.76;51.04;98518.13;5071587;28;20020;-73
2023/10/19 18:54:45;;;;;;;10.38;4.07;;;;;;;18.76;49.92;98521.59;5019752;28;20044;-76
2023/10/19 18:57:11;;;;;;;5.93;4.03;;;;;;;18.80;51.57;98525.56;5071884;28;20078;-75
2023/10/19 18:59:37;;;;;;;10.70;4.47;;;;;;;18.83;54.52;98512.97;5037410;28;20149;-76
2023/10/19 19:02:04;;;;;;;9.07;5.20;;;;;;;18.88;57.74;98515.94;5071695;28;20491;-72
2023/10/19 19:04:30;;;;;;;12.13;5.70;;;;;;;18.89;59.94;98515.75;5053790;28;20490;-75
2023/10/19 19:06:55;;;;;;;15.77;6.38;;;;;;;18.98;59.48;98521.81;5036830;28;20036;-76
2023/10/19 19:09:21;;;;;;;18.90;7.47;;;;;;;19.05;61.25;98512.16;5037047;28;20039;-78
2023/10/19 19:11:47;;;;;;;22.05;8.20;;;;;;;19.18;60.97;98519.50;5037107;28;20457;-77
2023/10/19 19:14:12;;;;;;;26.20;8.75;;;;;;;19.23;63.30;98516.31;5036894;28;20108;-75
2023/10/19 19:16:38;;;;;;;29.83;10.05;;;;;;;19.34;65.07;98522.03;5037165;28;20082;-75
2023/10/19 19:19:03;;;;;;;24.17;10.50;;;;;;;19.39;64.17;98518.84;5020153;28;20600;-78
2023/10/19 19:21:29;;;;;;;15.88;8.02;;;;;;;19.42;61.57;98529.09;5019897;28;20039;-80
2023/10/19 19:23:54;;;;;;;388.33;157.48;;;;;;;19.63;67.22;98531.03;5020753;28;20020;-75